createdAt,value
2019-05-18T00:00:37.874Z,8.50
2019-05-18T00:03:09.656Z,7.87
2019-05-18T00:05:41.066Z,8.00
2019-05-18T00:08:12.517Z,8.40
2019-05-18T00:10:44.282Z,8.03
2019-05-18T00:13:15.691Z,8.57
2019-05-18T00:15:47.052Z,8.20
2019-05-18T00:18:18.511Z,8.43
2019-05-18T00:20:49.846Z,7.87
2019-05-18T00:23:21.302Z,8.37
2019-05-18T00:25:52.756Z,8.07
2019-05-18T00:28:25.957Z,8.30
2019-05-18T00:30:57.194Z,8.10
2019-05-18T00:33:28.722Z,9.10
2019-05-18T00:36:00.111Z,8.50
2019-05-18T00:38:31.522Z,9.07
2019-05-18T00:41:02.978Z,8.97
2019-05-18T00:43:34.566Z,8.87
2019-05-18T00:46:06.271Z,9.07
2019-05-18T00:48:38.132Z,8.60
2019-05-18T00:51:09.558Z,8.53
2019-05-18T00:53:40.864Z,8.80
2019-05-18T00:56:12.302Z,9.70
2019-05-18T00:58:43.786Z,9.27
2019-05-18T01:01:15.426Z,9.10
2019-05-18T01:03:48.144Z,9.10
2019-05-18T01:06:19.617Z,9.30
2019-05-18T01:08:51.288Z,8.27
2019-05-18T01:11:23.048Z,8.60
2019-05-18T01:13:54.483Z,9.13
2019-05-18T01:16:25.870Z,8.90
2019-05-18T01:18:57.557Z,8.77
2019-05-18T01:21:29.109Z,8.90
2019-05-18T01:24:00.920Z,8.50
2019-05-18T01:26:36.521Z,8.60
2019-05-18T01:29:08.673Z,10.00
2019-05-18T01:31:40.585Z,9.53
2019-05-18T01:34:11.974Z,9.03
2019-05-18T01:36:43.644Z,8.37
2019-05-18T01:39:15.761Z,9.63
2019-05-18T01:41:50.057Z,9.30
2019-05-18T01:44:22.396Z,8.40
2019-05-18T01:46:56.270Z,8.90
2019-05-18T01:49:28.325Z,8.97
2019-05-18T01:52:00.119Z,8.37
2019-05-18T01:54:31.649Z,8.73
2019-05-18T01:57:03.333Z,9.27
2019-05-18T01:59:36.535Z,8.70
2019-05-18T02:02:08.037Z,9.67
2019-05-18T02:04:39.297Z,9.07
2019-05-18T02:07:10.726Z,9.20
2019-05-18T02:09:45.009Z,10.17
2019-05-18T02:12:17.093Z,9.80
2019-05-18T02:14:49.711Z,9.13
2019-05-18T02:17:24.050Z,9.90
2019-05-18T02:19:55.536Z,11.10
2019-05-18T02:22:27.042Z,10.63
2019-05-18T02:24:58.790Z,11.17
2019-05-18T02:27:30.645Z,11.67
2019-05-18T02:30:02.403Z,11.40
2019-05-18T02:32:43.842Z,11.10
2019-05-18T02:35:20.103Z,11.40
2019-05-18T02:37:51.903Z,11.90
2019-05-18T02:40:23.225Z,11.43
2019-05-18T02:42:54.882Z,11.97
2019-05-18T02:45:26.397Z,12.83
2019-05-18T02:47:58.112Z,13.47
2019-05-18T02:50:29.609Z,12.67
2019-05-18T02:53:01.791Z,13.47
2019-05-18T02:55:33.643Z,13.73
2019-05-18T02:58:06.153Z,12.90
2019-05-18T03:00:37.995Z,13.67
2019-05-18T03:03:09.558Z,12.83
2019-05-18T03:05:41.021Z,13.17
2019-05-18T03:08:12.738Z,13.47
2019-05-18T03:10:44.148Z,13.37
2019-05-18T03:13:16.569Z,15.03
2019-05-18T03:15:47.944Z,14.33
2019-05-18T03:18:19.368Z,14.20
2019-05-18T03:20:51.024Z,14.13
2019-05-18T03:23:22.618Z,13.10
2019-05-18T03:25:54.029Z,13.60
2019-05-18T03:28:25.728Z,14.43
2019-05-18T03:30:57.360Z,15.17
2019-05-18T03:33:30.169Z,16.77
2019-05-18T03:36:01.735Z,15.77
2019-05-18T03:38:33.195Z,16.03
2019-05-18T03:41:04.486Z,15.20
2019-05-18T03:43:37.857Z,15.70
2019-05-18T03:46:09.104Z,14.40
2019-05-18T03:48:40.492Z,15.93
2019-05-18T03:51:11.942Z,15.47
2019-05-18T03:53:43.372Z,16.50
2019-05-18T03:56:14.614Z,16.87
2019-05-18T03:58:46.135Z,16.07
2019-05-18T04:01:17.361Z,17.17
2019-05-18T04:03:48.873Z,16.50
2019-05-18T04:06:22.958Z,17.03
2019-05-18T04:08:54.581Z,16.40
2019-05-18T04:11:25.802Z,17.30
2019-05-18T04:13:58.488Z,16.83
2019-05-18T04:16:31.071Z,18.93
2019-05-18T04:19:02.575Z,18.60
2019-05-18T04:21:34.102Z,17.67
2019-05-18T04:24:05.467Z,18.43
2019-05-18T04:26:36.912Z,17.87
2019-05-18T04:29:08.693Z,19.87
2019-05-18T04:31:40.426Z,18.67
2019-05-18T04:34:12.134Z,19.80
2019-05-18T04:36:43.729Z,18.90
2019-05-18T04:39:21.310Z,19.47
2019-05-18T04:41:52.996Z,21.30
2019-05-18T04:44:24.530Z,19.47
2019-05-18T04:46:57.593Z,22.47
2019-05-18T04:49:30.629Z,21.83
2019-05-18T04:52:01.933Z,21.80
2019-05-18T04:54:34.133Z,21.00
2019-05-18T04:57:06.153Z,20.63
2019-05-18T04:59:37.599Z,18.77
2019-05-18T05:02:09.383Z,22.03
2019-05-18T05:04:41.002Z,22.87
2019-05-18T05:07:12.320Z,23.07
2019-05-18T05:09:44.001Z,25.03
2019-05-18T05:12:16.173Z,23.40
2019-05-18T05:14:49.951Z,23.30
2019-05-18T05:17:21.563Z,25.53
2019-05-18T05:19:52.872Z,24.10
2019-05-18T05:22:25.314Z,23.47
2019-05-18T05:24:57.259Z,26.57
2019-05-18T05:27:30.825Z,24.83
2019-05-18T05:30:07.231Z,25.30
2019-05-18T05:32:46.281Z,27.17
2019-05-18T05:35:18.032Z,25.60
2019-05-18T05:37:49.918Z,27.70
2019-05-18T05:40:21.714Z,26.53
2019-05-18T05:42:53.899Z,26.47
2019-05-18T05:45:25.983Z,27.30
2019-05-18T05:47:57.446Z,29.40
2019-05-18T05:50:35.774Z,26.73
2019-05-18T05:53:03.048Z,26.97
2019-05-18T05:55:35.031Z,26.70
2019-05-18T05:58:06.782Z,26.73
2019-05-18T06:00:38.185Z,28.33
2019-05-18T06:03:10.458Z,27.83
2019-05-18T06:05:41.981Z,27.63
2019-05-18T06:08:13.611Z,28.60
2019-05-18T06:10:45.375Z,28.40
2019-05-18T06:13:16.843Z,26.90
2019-05-18T06:15:48.335Z,28.93
2019-05-18T06:18:19.852Z,29.27
2019-05-18T06:20:52.183Z,32.03
2019-05-18T06:23:23.621Z,29.80
2019-05-18T06:25:55.107Z,27.07
2019-05-18T06:28:26.729Z,27.13
2019-05-18T06:31:00.237Z,28.27
2019-05-18T06:33:31.771Z,28.70
2019-05-18T06:36:03.333Z,26.87
2019-05-18T06:38:34.791Z,28.73
2019-05-18T06:41:06.026Z,30.00
2019-05-18T06:43:37.430Z,30.00
2019-05-18T06:46:08.700Z,29.03
2019-05-18T06:48:39.942Z,26.10
2019-05-18T06:51:11.393Z,29.73
2019-05-18T06:53:42.985Z,28.33
2019-05-18T06:56:14.956Z,27.40
2019-05-18T06:58:46.685Z,26.70
2019-05-18T07:01:17.945Z,27.30
2019-05-18T07:03:52.111Z,28.37
2019-05-18T07:06:23.169Z,29.13
2019-05-18T07:08:56.469Z,28.20
2019-05-18T07:11:29.699Z,28.60
2019-05-18T07:14:01.238Z,29.60
2019-05-18T07:16:32.739Z,28.50
2019-05-18T07:19:04.472Z,27.63
2019-05-18T07:21:35.897Z,25.87
2019-05-18T07:24:10.049Z,26.43
2019-05-18T07:26:42.741Z,28.03
2019-05-18T07:29:50.511Z,26.90
2019-05-18T07:32:31.330Z,27.07
2019-05-18T07:35:02.951Z,28.47
2019-05-18T07:37:45.375Z,27.90
2019-05-18T07:40:17.074Z,26.00
2019-05-18T07:42:48.708Z,26.53
2019-05-18T07:45:20.321Z,27.67
2019-05-18T07:47:51.633Z,27.50
2019-05-18T07:50:23.111Z,24.77
2019-05-18T07:52:54.922Z,25.07
2019-05-18T07:55:26.604Z,27.40
2019-05-18T07:58:01.379Z,26.27
2019-05-18T08:00:34.098Z,25.20
2019-05-18T08:03:06.266Z,28.40
2019-05-18T08:05:37.840Z,26.77
2019-05-18T08:08:09.591Z,25.70
2019-05-18T08:10:43.616Z,28.07
2019-05-18T08:13:16.799Z,25.93
2019-05-18T08:15:48.653Z,29.20
2019-05-18T08:18:21.927Z,26.33
2019-05-18T08:20:53.315Z,28.87
2019-05-18T08:23:24.813Z,27.43
2019-05-18T08:25:56.951Z,27.30
2019-05-18T08:28:29.440Z,27.60
2019-05-18T08:31:01.221Z,27.37
2019-05-18T08:33:33.057Z,26.17
2019-05-18T08:36:04.737Z,26.43
2019-05-18T08:38:36.603Z,25.90
2019-05-18T08:41:07.894Z,27.47
2019-05-18T08:43:39.184Z,25.80
2019-05-18T08:46:10.616Z,25.97
2019-05-18T08:48:42.063Z,28.10
2019-05-18T08:51:16.068Z,25.63
2019-05-18T08:53:47.808Z,24.00
2019-05-18T08:56:19.280Z,23.27
2019-05-18T08:58:51.749Z,23.00
2019-05-18T09:01:23.429Z,23.80
2019-05-18T09:03:54.763Z,22.90
2019-05-18T09:06:26.531Z,23.80
2019-05-18T09:08:57.940Z,23.60
2019-05-18T09:11:29.592Z,23.97
2019-05-18T09:14:01.376Z,26.03
2019-05-18T09:16:32.813Z,25.53
2019-05-18T09:19:04.804Z,26.90
2019-05-18T09:21:36.349Z,26.30
2019-05-18T09:24:09.126Z,28.60
2019-05-18T09:26:42.036Z,25.20
2019-05-18T09:29:16.879Z,22.77
2019-05-18T09:31:48.421Z,23.90
2019-05-18T09:34:19.867Z,22.30
2019-05-18T09:36:51.948Z,24.57
2019-05-18T09:39:23.383Z,25.37
2019-05-18T09:41:56.266Z,24.67
2019-05-18T09:44:27.858Z,24.37
2019-05-18T09:46:59.639Z,25.60
2019-05-18T09:49:30.996Z,25.60
2019-05-18T09:52:02.747Z,25.60
2019-05-18T09:54:35.607Z,24.87
2019-05-18T09:57:06.901Z,25.00
2019-05-18T09:59:39.374Z,21.97
2019-05-18T10:02:10.812Z,23.40
2019-05-18T10:04:42.734Z,25.10
2019-05-18T10:07:14.288Z,24.33
2019-05-18T10:09:45.689Z,21.93
2019-05-18T10:12:17.157Z,21.80
2019-05-18T10:14:48.752Z,22.07
2019-05-18T10:17:20.012Z,25.27
2019-05-18T10:19:51.229Z,22.23
2019-05-18T10:22:22.965Z,21.57
2019-05-18T10:24:54.576Z,21.50
2019-05-18T10:27:27.270Z,21.13
2019-05-18T10:29:58.528Z,23.10
2019-05-18T10:32:31.409Z,21.20
2019-05-18T10:35:14.261Z,22.00
2019-05-18T10:37:45.566Z,20.30
2019-05-18T10:40:18.109Z,20.30
2019-05-18T10:42:49.649Z,20.60
2019-05-18T10:45:21.055Z,21.63
2019-05-18T10:48:28.647Z,22.10
2019-05-18T10:51:15.361Z,23.07
2019-05-18T10:53:48.030Z,22.10
2019-05-18T10:56:57.073Z,22.87
2019-05-18T10:59:28.385Z,22.07
2019-05-18T11:02:10.748Z,21.40
2019-05-18T11:04:43.023Z,22.60
2019-05-18T11:07:14.407Z,22.70
2019-05-18T11:09:57.266Z,23.10
2019-05-18T11:12:47.074Z,23.37
2019-05-18T11:15:29.131Z,22.50
2019-05-18T11:18:10.936Z,21.67
2019-05-18T11:20:48.666Z,21.50
2019-05-18T11:23:26.687Z,22.53
2019-05-18T11:26:07.664Z,20.47
2019-05-18T11:28:39.731Z,21.37
2019-05-18T11:31:11.804Z,20.53
2019-05-18T11:33:43.497Z,21.53
2019-05-18T11:36:14.968Z,21.10
2019-05-18T11:38:47.345Z,22.97
2019-05-18T11:41:18.910Z,23.00
2019-05-18T11:43:50.380Z,20.87
2019-05-18T11:46:22.211Z,22.57
2019-05-18T11:48:54.464Z,22.50
2019-05-18T11:51:26.298Z,21.70
2019-05-18T11:53:58.663Z,22.50
2019-05-18T11:56:30.678Z,21.70
2019-05-18T11:59:02.214Z,21.70
2019-05-18T12:01:33.919Z,22.13
2019-05-18T12:04:05.662Z,21.73
2019-05-18T12:06:37.385Z,22.63
2019-05-18T12:09:09.177Z,21.73
2019-05-18T12:11:41.029Z,22.47
2019-05-18T12:14:12.845Z,20.53
2019-05-18T12:16:46.116Z,22.17
2019-05-18T12:19:17.475Z,22.87
2019-05-18T12:21:49.453Z,23.43
2019-05-18T12:24:22.661Z,22.27
2019-05-18T12:26:57.912Z,22.77
2019-05-18T12:29:30.717Z,25.17
2019-05-18T12:32:03.817Z,24.10
2019-05-18T12:34:35.507Z,23.47
2019-05-18T12:37:07.082Z,23.37
2019-05-18T12:39:38.400Z,23.87
2019-05-18T12:42:09.900Z,23.50
2019-05-18T12:44:41.171Z,23.13
2019-05-18T12:47:14.486Z,24.17
2019-05-18T12:49:45.592Z,22.00
2019-05-18T12:52:18.429Z,22.47
2019-05-18T12:54:50.968Z,23.10
2019-05-18T12:57:22.955Z,23.23
2019-05-18T12:59:54.527Z,22.70
2019-05-18T13:02:26.412Z,23.23
2019-05-18T13:04:58.291Z,23.27
2019-05-18T13:07:30.428Z,21.30
2019-05-18T13:10:01.854Z,22.90
2019-05-18T13:12:43.976Z,22.03
2019-05-18T13:15:17.643Z,22.87
2019-05-18T13:17:50.930Z,23.00
2019-05-18T13:20:25.039Z,23.57
2019-05-18T13:22:56.832Z,22.27
2019-05-18T13:25:28.420Z,22.60
2019-05-18T13:27:59.723Z,23.00
2019-05-18T13:30:31.527Z,22.87
2019-05-18T13:33:05.624Z,24.83
2019-05-18T13:35:38.227Z,23.23
2019-05-18T13:38:10.059Z,24.47
2019-05-18T13:40:41.735Z,23.03
2019-05-18T13:43:13.029Z,22.40
2019-05-18T13:45:47.051Z,22.60
2019-05-18T13:48:18.498Z,23.67
2019-05-18T13:50:50.958Z,22.50
2019-05-18T13:53:22.824Z,22.10
2019-05-18T13:55:56.607Z,21.53
2019-05-18T13:58:30.779Z,22.60
2019-05-18T14:01:02.714Z,23.93
2019-05-18T14:03:34.745Z,23.57
2019-05-18T14:06:06.125Z,21.47
2019-05-18T14:08:38.672Z,23.83
2019-05-18T14:11:10.331Z,23.10
2019-05-18T14:13:42.655Z,22.13
2019-05-18T14:16:14.265Z,23.77
2019-05-18T14:18:47.853Z,21.50
2019-05-18T14:21:19.150Z,20.63
2019-05-18T14:23:50.460Z,21.77
2019-05-18T14:26:21.837Z,21.73
2019-05-18T14:28:53.109Z,24.30
2019-05-18T14:31:24.799Z,22.93
2019-05-18T14:33:56.352Z,23.37
2019-05-18T14:36:27.663Z,22.10
2019-05-18T14:38:59.357Z,22.07
2019-05-18T14:41:30.984Z,21.77
2019-05-18T14:44:02.603Z,21.23
2019-05-18T14:46:34.464Z,22.30
2019-05-18T14:49:05.720Z,21.93
2019-05-18T14:51:37.063Z,23.00
2019-05-18T14:54:08.428Z,22.90
2019-05-18T14:56:42.226Z,23.37
2019-05-18T14:59:13.560Z,21.30
2019-05-18T15:01:45.007Z,21.40
2019-05-18T15:04:18.769Z,20.87
2019-05-18T15:06:50.314Z,21.13
2019-05-18T15:09:21.570Z,21.73
2019-05-18T15:11:52.993Z,22.00
2019-05-18T15:14:24.811Z,20.00
2019-05-18T15:16:57.012Z,21.37
2019-05-18T15:19:28.869Z,19.90
2019-05-18T15:22:02.080Z,19.47
2019-05-18T15:24:34.848Z,21.80
2019-05-18T15:27:08.741Z,21.50
2019-05-18T15:29:43.379Z,19.20
2019-05-18T15:32:14.959Z,19.50
2019-05-18T15:34:47.224Z,19.57
2019-05-18T15:37:19.863Z,19.87
2019-05-18T15:39:51.742Z,20.60
2019-05-18T15:42:23.986Z,19.37
2019-05-18T15:44:55.327Z,19.67
2019-05-18T15:47:27.224Z,21.67
2019-05-18T15:50:00.129Z,20.90
2019-05-18T15:52:42.455Z,21.20
2019-05-18T15:55:18.312Z,20.67
2019-05-18T15:57:52.898Z,20.27
2019-05-18T16:00:24.968Z,20.03
2019-05-18T16:03:00.015Z,18.63
2019-05-18T16:05:34.471Z,20.60
2019-05-18T16:08:06.017Z,21.70
2019-05-18T16:10:40.019Z,19.40
2019-05-18T16:13:12.607Z,19.33
2019-05-18T16:15:46.094Z,20.77
2019-05-18T16:18:18.004Z,18.30
2019-05-18T16:20:50.960Z,18.67
2019-05-18T16:23:24.490Z,17.80
2019-05-18T16:25:56.974Z,18.40
2019-05-18T16:28:29.854Z,18.87
2019-05-18T16:31:03.432Z,18.70
2019-05-18T16:33:36.913Z,20.03
2019-05-18T16:36:10.367Z,18.53
2019-05-18T16:38:44.482Z,18.47
2019-05-18T16:41:18.050Z,17.50
2019-05-18T16:43:51.407Z,17.70
2019-05-18T16:46:23.028Z,17.10
2019-05-18T16:48:57.089Z,18.07
2019-05-18T16:51:28.993Z,17.07
2019-05-18T16:54:03.224Z,17.93
2019-05-18T16:56:36.376Z,16.20
2019-05-18T16:59:08.277Z,15.80
2019-05-18T17:01:41.641Z,18.50
2019-05-18T17:04:15.182Z,16.80
2019-05-18T17:06:47.351Z,17.40
2019-05-18T17:09:22.544Z,17.40
2019-05-18T17:11:55.163Z,17.40
2019-05-18T17:14:27.269Z,16.37
2019-05-18T17:17:01.805Z,17.37
2019-05-18T17:19:34.729Z,15.97
2019-05-18T17:22:07.546Z,15.80
2019-05-18T17:24:46.173Z,16.17
2019-05-18T17:27:22.737Z,16.70
2019-05-18T17:29:56.301Z,17.80
2019-05-18T17:32:30.479Z,16.80
2019-05-18T17:35:02.121Z,17.83
2019-05-18T17:37:45.951Z,19.13
2019-05-18T17:40:19.705Z,15.77
2019-05-18T17:43:03.382Z,18.17
2019-05-18T17:45:46.569Z,19.27
2019-05-18T17:48:31.690Z,16.77
2019-05-18T17:51:14.104Z,16.43
2019-05-18T17:53:54.000Z,18.50
2019-05-18T17:56:31.631Z,18.37
2019-05-18T17:59:05.584Z,19.40
2019-05-18T18:01:39.030Z,16.43
2019-05-18T18:04:12.218Z,19.07
2019-05-18T18:06:45.576Z,17.93
2019-05-18T18:09:17.700Z,16.13
2019-05-18T18:11:54.697Z,18.40
2019-05-18T18:14:27.617Z,17.27
2019-05-18T18:17:00.139Z,16.40
2019-05-18T18:19:33.562Z,18.60
2019-05-18T18:22:05.737Z,18.10
2019-05-18T18:24:40.651Z,18.77
2019-05-18T18:27:24.887Z,17.63
2019-05-18T18:29:50.030Z,16.87
2019-05-18T18:32:24.032Z,17.80
2019-05-18T18:34:58.386Z,17.60
2019-05-18T18:37:30.673Z,16.23
2019-05-18T18:40:02.974Z,17.53
2019-05-18T18:42:47.711Z,16.83
2019-05-18T18:45:20.973Z,19.13
2019-05-18T18:47:54.507Z,18.47
2019-05-18T18:50:26.689Z,18.50
2019-05-18T18:53:00.608Z,17.77
2019-05-18T18:55:32.713Z,17.80
2019-05-18T18:58:05.757Z,17.13
2019-05-18T19:00:38.909Z,18.80
2019-05-18T19:03:11.984Z,20.20
2019-05-18T19:05:47.003Z,19.30
2019-05-18T19:08:20.863Z,18.90
2019-05-18T19:10:53.926Z,18.93
2019-05-18T19:13:26.565Z,18.33
2019-05-18T19:16:01.338Z,19.17
2019-05-18T19:18:32.746Z,18.67
2019-05-18T19:21:05.289Z,17.73
2019-05-18T19:23:38.331Z,17.93
2019-05-18T19:26:11.740Z,19.33
2019-05-18T19:28:45.110Z,17.70
2019-05-18T19:31:17.803Z,22.37
2019-05-18T19:33:51.703Z,28.40
2019-05-18T19:36:23.137Z,25.93
2019-05-18T19:38:56.907Z,22.10
2019-05-18T19:41:34.323Z,19.90
2019-05-18T19:44:06.085Z,20.00
2019-05-18T19:46:44.286Z,19.53
2019-05-18T19:49:17.759Z,20.67
2019-05-18T19:51:51.146Z,21.60
2019-05-18T19:54:24.810Z,21.70
2019-05-18T19:56:57.194Z,21.67
2019-05-18T19:59:30.558Z,19.80
2019-05-18T20:02:04.178Z,19.50
2019-05-18T20:04:36.731Z,18.10
2019-05-18T20:07:11.438Z,18.73
2019-05-18T20:09:43.584Z,18.17
2019-05-18T20:12:15.307Z,18.30
2019-05-18T20:14:48.859Z,18.60
2019-05-18T20:17:21.300Z,19.90
2019-05-18T20:19:54.221Z,24.67
2019-05-18T20:22:27.012Z,31.57
2019-05-18T20:25:02.534Z,20.60
2019-05-18T20:27:45.141Z,21.23
2019-05-18T20:30:19.130Z,18.47
2019-05-18T20:32:53.164Z,18.63
2019-05-18T20:35:26.135Z,18.67
2019-05-18T20:37:58.200Z,18.20
2019-05-18T20:40:30.291Z,18.60
2019-05-18T20:43:02.997Z,19.63
2019-05-18T20:45:37.366Z,17.80
2019-05-18T20:48:10.049Z,18.87
2019-05-18T20:50:42.314Z,18.67
2019-05-18T20:53:15.867Z,19.67
2019-05-18T20:55:48.512Z,20.33
2019-05-18T20:58:21.586Z,20.73
2019-05-18T21:00:54.412Z,19.80
2019-05-18T21:03:28.792Z,20.90
2019-05-18T21:06:03.049Z,20.43
2019-05-18T21:08:36.318Z,20.00
2019-05-18T21:11:09.862Z,20.60
2019-05-18T21:13:42.502Z,21.00
2019-05-18T21:16:14.643Z,22.97
2019-05-18T21:18:47.201Z,19.73
2019-05-18T21:21:25.055Z,19.83
2019-05-18T21:23:53.732Z,20.40
2019-05-18T21:26:27.634Z,20.20
2019-05-18T21:29:02.000Z,22.23
2019-05-18T21:31:48.462Z,22.70
2019-05-18T21:34:33.846Z,26.80
2019-05-18T21:37:05.626Z,26.47
2019-05-18T21:39:47.240Z,21.97
2019-05-18T21:42:24.768Z,20.20
2019-05-18T21:44:59.428Z,20.37
2019-05-18T21:47:47.234Z,22.03
2019-05-18T21:50:20.744Z,22.60
2019-05-18T21:52:53.860Z,21.73
2019-05-18T21:55:44.309Z,21.30
2019-05-18T21:58:18.540Z,21.90
2019-05-18T22:00:53.825Z,22.33
2019-05-18T22:03:28.627Z,21.33
2019-05-18T22:06:03.626Z,20.43
2019-05-18T22:08:35.476Z,21.70
2019-05-18T22:11:09.329Z,20.50
2019-05-18T22:13:41.775Z,22.43
2019-05-18T22:16:15.212Z,22.53
2019-05-18T22:18:49.399Z,22.00
2019-05-18T22:21:23.485Z,21.17
2019-05-18T22:23:55.811Z,23.90
2019-05-18T22:26:31.407Z,23.50
2019-05-18T22:29:05.794Z,21.60
2019-05-18T22:31:45.669Z,21.57
2019-05-18T22:34:19.307Z,22.40
2019-05-18T22:36:56.463Z,21.57
2019-05-18T22:39:26.969Z,23.90
2019-05-18T22:42:01.296Z,22.87
2019-05-18T22:44:35.536Z,23.60
2019-05-18T22:47:08.845Z,25.47
2019-05-18T22:49:42.843Z,25.20
2019-05-18T22:52:14.912Z,25.07
2019-05-18T22:54:46.641Z,26.87
2019-05-18T22:57:21.607Z,25.97
2019-05-18T22:59:53.004Z,24.27
2019-05-18T23:02:27.282Z,27.70
2019-05-18T23:05:00.516Z,26.47
2019-05-18T23:07:43.006Z,26.17
2019-05-18T23:10:17.146Z,25.67
2019-05-18T23:12:50.958Z,29.00
2019-05-18T23:15:22.940Z,27.20
2019-05-18T23:17:56.796Z,29.43
2019-05-18T23:20:30.781Z,28.37
2019-05-18T23:23:05.581Z,28.30
2019-05-18T23:25:39.970Z,27.33
2019-05-18T23:28:12.404Z,28.10
2019-05-18T23:30:44.884Z,27.20
2019-05-18T23:33:16.816Z,27.43
2019-05-18T23:35:48.352Z,27.30
2019-05-18T23:38:22.047Z,28.47
2019-05-18T23:40:58.329Z,27.50
2019-05-18T23:43:29.961Z,28.30
2019-05-18T23:46:03.186Z,29.27
2019-05-18T23:48:36.069Z,30.37
2019-05-18T23:51:11.076Z,38.03
2019-05-18T23:53:44.961Z,30.57
2019-05-18T23:56:18.005Z,27.00
2019-05-18T23:58:52.489Z,26.53
